Normandie — FNNO — position and weather

sailwx.info

Track history (hours):
 
Tides and Currents Weather Stations Pressure Air Temp Water Temp Dewpoint Dewpoint Depression Visibility Wind Speed Wind Dir Waves Ship Positions

Normandie

Operator: Brittany Ferries

Last reported at 2019-Jul-22 06:00 UTC. Time now 2019-Jul-22 06:15 UTC.
Position N 50°49' W 001°06'.

Length 161 m; beam 27 m.

Type: Ship. MMSI: 227273000.

Date/timePositionNaut miles runAvg speedWind from/ knotsBaromVisibWave heightAir tempDewpointWater temp
2019-Jul-22 06:00N 50°49' W 001°06'0 0.4
2019-Jul-22 05:31N 50°49' W 001°06'510.8
2019-Jul-22 05:01N 50°44' W 001°03'815.7
2019-Jul-22 04:31N 50°37' W 000°58'816.2
2019-Jul-22 04:00N 50°29' W 000°54'612.2
2019-Jul-22 03:31N 50°23' W 000°51'611.7
2019-Jul-22 03:00N 50°18' W 000°46'611.9
2019-Jul-22 02:28N 50°12' W 000°43'811.4
2019-Jul-22 01:45N 50°04' W 000°39'411.1
2019-Jul-22 01:25N 50°01' W 000°37'511.3
2019-Jul-22 00:59N 49°56' W 000°34'511.2
2019-Jul-22 00:30N 49°51' W 000°31'611.1
2019-Jul-22 00:00N 49°46' W 000°28'611.1
2019-Jul-21 23:30N 49°41' W 000°25'611.0
2019-Jul-21 23:00N 49°36' W 000°22'511.0
2019-Jul-21 22:30N 49°30' W 000°19'510.7
2019-Jul-21 22:00N 49°25' W 000°17'510.4
2019-Jul-21 21:30N 49°20' W 000°14'3 6.1
2019-Jul-21 21:00N 49°17' W 000°15'0 0.0
2019-Jul-21 20:30N 49°17' W 000°15'0 0.0
2019-Jul-21 20:00N 49°17' W 000°15'0 0.0
2019-Jul-21 19:30N 49°17' W 000°15'3 6.3
2019-Jul-21 19:00N 49°21' W 000°14'918.7
2019-Jul-21 18:30N 49°29' W 000°20'919.0
2019-Jul-21 18:01N 49°38' W 000°24'918.8
2019-Jul-21 17:30N 49°47' W 000°29'918.9
2019-Jul-21 17:01N 49°56' W 000°34'918.8
2019-Jul-21 16:30N 50°05' W 000°38'1218.9
2019-Jul-21 15:52N 50°16' W 000°45'819.5
2019-Jul-21 15:28N 50°23' W 000°50'919.4
2019-Jul-21 15:00N 50°32' W 000°55'1019.1
2019-Jul-21 14:30N 50°41' W 000°60'815.6
2019-Jul-21 14:00N 50°47' W 001°07'2 3.0
2019-Jul-21 13:30N 50°49' W 001°06'0 0.0
2019-Jul-21 13:00N 50°49' W 001°06'0 0.0
2019-Jul-21 12:30N 50°49' W 001°06'1 1.3
2019-Jul-21 12:00N 50°49' W 001°07'713.8
2019-Jul-21 11:30N 50°43' W 001°01'918.8
2019-Jul-21 11:00N 50°34' W 000°56'1119.0
2019-Jul-21 10:27N 50°24' W 000°49'1019.5
2019-Jul-21 09:55N 50°14' W 000°46'819.1
2019-Jul-21 09:30N 50°06' W 000°42'1019.2
2019-Jul-21 09:00N 49°57' W 000°37'1019.1
2019-Jul-21 08:30N 49°48' W 000°33'1019.2
2019-Jul-21 08:00N 49°39' W 000°27'1019.4
2019-Jul-21 07:30N 49°31' W 000°21'1019.1
2019-Jul-21 07:00N 49°22' W 000°15'4 8.9
2019-Jul-21 06:30N 49°17' W 000°15'0 0.0
2019-Jul-21 06:00N 49°17' W 000°15'0 0.0
2019-Jul-21 05:30N 49°17' W 000°15'0 0.0
2019-Jul-21 05:00N 49°17' W 000°15'0 0.1
2019-Jul-21 04:30N 49°17' W 000°15'713.3
2019-Jul-21 04:00N 49°24' W 000°15'714.5
2019-Jul-21 03:30N 49°31' W 000°19'714.8
2019-Jul-21 03:00N 49°37' W 000°24'714.9
2019-Jul-21 02:30N 49°44' W 000°28'714.4
2019-Jul-21 02:00N 49°51' W 000°32'713.6
2019-Jul-21 01:30N 49°57' W 000°37'714.4
2019-Jul-21 01:01N 50°04' W 000°41'815.3
2019-Jul-21 00:31N 50°11' W 000°44'815.4
2019-Jul-21 00:00N 50°19' W 000°47'815.4
2019-Jul-20 23:30N 50°26' W 000°51'815.9
2019-Jul-20 23:00N 50°33' W 000°55'815.4
2019-Jul-20 22:30N 50°41' W 000°60'714.7
2019-Jul-20 22:00N 50°47' W 001°06'2 3.9
2019-Jul-20 21:30N 50°49' W 001°06'0 0.0
2019-Jul-20 21:00N 50°49' W 001°06'0 0.0
2019-Jul-20 20:30N 50°49' W 001°06'1 1.3
2019-Jul-20 20:00N 50°48' W 001°07'612.4
2019-Jul-20 19:30N 50°43' W 001°01'917.4
2019-Jul-20 19:00N 50°35' W 000°57'1019.6
2019-Jul-20 18:30N 50°25' W 000°54'1019.6
2019-Jul-20 17:59N 50°16' W 000°49'1020.2
2019-Jul-20 17:30N 50°07' W 000°43'1020.5
2019-Jul-20 17:00N 49°57' W 000°37'1020.2
2019-Jul-20 16:30N 49°48' W 000°32'1020.4
2019-Jul-20 16:00N 49°38' W 000°26'1020.1
2019-Jul-20 15:30N 49°29' W 000°20'1019.6
2019-Jul-20 15:00N 49°20' W 000°14'3 5.2
2019-Jul-20 14:30N 49°17' W 000°15'0 0.0
2019-Jul-20 14:00N 49°17' W 000°15'0 0.0
2019-Jul-20 13:30N 49°17' W 000°15'0 0.1
2019-Jul-20 13:00N 49°17' W 000°15'612.5
2019-Jul-20 12:31N 49°24' W 000°15'1019.9
2019-Jul-20 12:01N 49°33' W 000°21'1019.2
2019-Jul-20 11:31N 49°42' W 000°24'1019.8
2019-Jul-20 11:01N 49°52' W 000°28'1020.3
2019-Jul-20 10:31N 50°01' W 000°34'1020.4
2019-Jul-20 10:00N 50°11' W 000°40'1919.5
2019-Jul-20 09:03N 50°28' W 000°50'120.9
2019-Jul-20 09:01N 50°29' W 000°51'1020.1
2019-Jul-20 08:31N 50°38' W 000°58'713.3
2019-Jul-20 08:01N 50°44' W 001°03'611.1
2019-Jul-20 07:30N 50°49' W 001°06'0 0.5
2019-Jul-20 07:00N 50°49' W 001°06'0 0.0
2019-Jul-20 06:30N 50°49' W 001°06'0 0.0
2019-Jul-20 06:00N 50°49' W 001°06'0 0.9
2019-Jul-20 05:30N 50°49' W 001°07'611.5
2019-Jul-20 05:00N 50°44' W 001°02'714.9
2019-Jul-20 04:30N 50°36' W 000°58'815.7
2019-Jul-20 04:00N 50°29' W 000°56'713.8
2019-Jul-20 03:30N 50°22' W 000°52'1512.0
2019-Jul-20 02:17N 50°09' W 000°42'312.0
2019-Jul-20 02:00N 50°06' W 000°41'611.8
2019-Jul-20 01:30N 50°00' W 000°37'611.7
2019-Jul-20 01:00N 49°55' W 000°34'611.6
2019-Jul-20 00:30N 49°49' W 000°31'611.4
2019-Jul-20 00:00N 49°44' W 000°28'611.3
2019-Jul-19 23:30N 49°39' W 000°25'611.1
2019-Jul-19 23:00N 49°34' W 000°22'611.2
2019-Jul-19 22:30N 49°28' W 000°19'611.0
2019-Jul-19 22:00N 49°23' W 000°16'511.0
2019-Jul-19 21:31N 49°18' W 000°15'0 1.0
2019-Jul-19 21:01N 49°17' W 000°15'0 0.0
2019-Jul-19 20:31N 49°17' W 000°15'0 0.0
2019-Jul-19 20:01N 49°17' W 000°15'0 0.2
2019-Jul-19 19:30N 49°17' W 000°15'815.7
2019-Jul-19 19:00N 49°25' W 000°16'1019.8
2019-Jul-19 18:30N 49°34' W 000°22'1019.6
2019-Jul-19 18:00N 49°43' W 000°27'1019.2
2019-Jul-19 17:30N 49°53' W 000°32'1118.8
2019-Jul-19 16:54N 50°03' W 000°37'2619.0
2019-Jul-19 15:31N 50°28' W 000°51'019.0
2019-Jul-19 15:30N 50°28' W 000°51'918.5
2019-Jul-19 15:00N 50°37' W 000°57'917.6
2019-Jul-19 14:30N 50°44' W 001°05'5 9.0
2019-Jul-19 14:00N 50°49' W 001°06'0 0.0
2019-Jul-19 13:30N 50°49' W 001°06'0 0.0
2019-Jul-19 13:00N 50°49' W 001°06'0 0.0
2019-Jul-19 12:30N 50°49' W 001°06'1 2.7
2019-Jul-19 12:00N 50°47' W 001°07'816.5
2019-Jul-19 11:30N 50°40' W 001°00'1019.9
2019-Jul-19 11:00N 50°31' W 000°56'2119.2
2019-Jul-19 09:53N 50°11' W 000°44'918.9
2019-Jul-19 09:25N 50°02' W 000°39'818.7
2019-Jul-19 09:00N 49°55' W 000°35'918.6
2019-Jul-19 08:30N 49°46' W 000°31'918.6
2019-Jul-19 08:00N 49°38' W 000°26'918.8
2019-Jul-19 07:30N 49°29' W 000°20'918.5
2019-Jul-19 07:01N 49°20' W 000°14'3 6.1
2019-Jul-19 06:30N 49°17' W 000°15'0 0.0
2019-Jul-19 06:00N 49°17' W 000°15'0 0.0
2019-Jul-19 05:30N 49°17' W 000°15'0 0.0
2019-Jul-19 05:00N 49°17' W 000°15'0 0.2
2019-Jul-19 04:30N 49°17' W 000°15'714.8
2019-Jul-19 04:00N 49°25' W 000°16'917.5
2019-Jul-19 03:30N 49°33' W 000°21'815.1
2019-Jul-19 03:00N 49°40' W 000°26'815.1
2019-Jul-19 02:30N 49°47' W 000°30'815.1
2019-Jul-19 02:00N 49°54' W 000°33'815.5
2019-Jul-19 01:29N 50°02' W 000°37'815.8
2019-Jul-19 01:00N 50°09' W 000°40'816.0
2019-Jul-19 00:31N 50°16' W 000°44'815.6
2019-Jul-19 00:00N 50°23' W 000°49'915.7
2019-Jul-18 23:25N 50°32' W 000°54'615.4
2019-Jul-18 23:00N 50°38' W 000°58'714.2
2019-Jul-18 22:31N 50°44' W 001°04'5 9.5
2019-Jul-18 22:00N 50°49' W 001°06'0 0.0
2019-Jul-18 21:30N 50°49' W 001°06'0 0.0
2019-Jul-18 21:00N 50°49' W 001°06'0 0.0
2019-Jul-18 20:30N 50°49' W 001°06'1 2.2
2019-Jul-18 20:00N 50°48' W 001°07'713.6
2019-Jul-18 19:30N 50°43' W 000°59'918.3
2019-Jul-18 19:01N 50°34' W 000°56'1019.4
2019-Jul-18 18:30N 50°25' W 000°51'1019.6
2019-Jul-18 18:00N 50°15' W 000°47'1019.9
2019-Jul-18 17:30N 50°06' W 000°42'1020.4
2019-Jul-18 17:01N 49°56' W 000°36'1020.3
2019-Jul-18 16:31N 49°47' W 000°30'1020.2
2019-Jul-18 16:01N 49°38' W 000°25'1020.2
2019-Jul-18 15:31N 49°28' W 000°19'1019.0
2019-Jul-18 15:00N 49°19' W 000°15'2 3.6
2019-Jul-18 14:31N 49°17' W 000°15'0 0.0
2019-Jul-18 14:01N 49°17' W 000°15'0 0.0
2019-Jul-18 13:31N 49°17' W 000°15'0 0.0
2019-Jul-18 13:01N 49°17' W 000°15'2 4.7
2019-Jul-18 12:31N 49°20' W 000°14'918.9
2019-Jul-18 12:00N 49°29' W 000°18'1019.7
2019-Jul-18 11:31N 49°38' W 000°25'1019.9
2019-Jul-18 11:01N 49°47' W 000°31'1020.3
2019-Jul-18 10:30N 49°56' W 000°38'1020.5
2019-Jul-18 10:00N 50°05' W 000°45'1020.0
2019-Jul-18 09:30N 50°15' W 000°51'1419.2
2019-Jul-18 08:46N 50°28' W 000°58'518.3
2019-Jul-18 08:30N 50°33' W 000°60'917.3
2019-Jul-18 08:00N 50°41' W 000°58'816.7
2019-Jul-18 07:31N 50°47' W 001°07'1 2.7
2019-Jul-18 07:01N 50°49' W 001°06'0 0.0
2019-Jul-18 06:31N 50°49' W 001°06'0 0.0
2019-Jul-18 06:01N 50°49' W 001°06'1 1.4
2019-Jul-18 05:31N 50°48' W 001°07'612.6
2019-Jul-18 05:01N 50°43' W 001°01'612.0
2019-Jul-18 04:30N 50°38' W 000°58'510.4
2019-Jul-18 04:00N 50°33' W 000°55'510.5
2019-Jul-18 03:30N 50°28' W 000°53'510.4
2019-Jul-18 03:00N 50°23' W 000°50'510.7
2019-Jul-18 02:30N 50°18' W 000°46'611.2
2019-Jul-18 02:00N 50°13' W 000°43'1211.8
2019-Jul-18 01:00N 50°02' W 000°35'612.2
2019-Jul-18 00:30N 49°56' W 000°32'612.6
2019-Jul-18 00:00N 49°50' W 000°30'612.4
2019-Jul-17 23:30N 49°44' W 000°27'612.1
2019-Jul-17 23:00N 49°39' W 000°23'611.7
2019-Jul-17 22:30N 49°33' W 000°20'611.0
2019-Jul-17 22:00N 49°28' W 000°18'510.6
2019-Jul-17 21:30N 49°23' W 000°16'510.9
2019-Jul-17 21:00N 49°17' W 000°15'0 0.1
2019-Jul-17 20:30N 49°17' W 000°15'0 0.0
2019-Jul-17 20:00N 49°17' W 000°15'0 0.0
2019-Jul-17 19:30N 49°17' W 000°15'0 0.0
2019-Jul-17 19:00N 49°17' W 000°15'0 0.0
2019-Jul-17 18:30N 49°17' W 000°15'0 0.0
2019-Jul-17 18:00N 49°17' W 000°15'0 0.0
2019-Jul-17 17:30N 49°17' W 000°15'0 0.0
2019-Jul-17 17:00N 49°17' W 000°15'0 0.0
2019-Jul-17 16:30N 49°17' W 000°15'0 0.0
2019-Jul-17 16:00N 49°17' W 000°15'0 0.0
2019-Jul-17 15:30N 49°17' W 000°15'0 0.1
2019-Jul-17 15:00N 49°17' W 000°15'0 0.0
2019-Jul-17 14:30N 49°17' W 000°15'0 0.0
2019-Jul-17 14:00N 49°17' W 000°15'0 0.0
2019-Jul-17 13:30N 49°17' W 000°15'0 0.0
2019-Jul-17 13:00N 49°17' W 000°15'4 8.4
2019-Jul-17 12:30N 49°21' W 000°15'917.9
2019-Jul-17 12:00N 49°30' W 000°19'918.2
2019-Jul-17 11:31N 49°38' W 000°24'1020.0
2019-Jul-17 11:00N 49°48' W 000°28'1020.1
2019-Jul-17 10:30N 49°58' W 000°33'1020.3
2019-Jul-17 10:00N 50°07' W 000°39'1020.2
2019-Jul-17 09:30N 50°16' W 000°45'1019.8
2019-Jul-17 09:00N 50°26' W 000°50'1020.1
2019-Jul-17 08:30N 50°35' W 000°56'918.5
2019-Jul-17 08:00N 50°43' W 001°03'611.6
2019-Jul-17 07:30N 50°49' W 001°06'0 0.1
2019-Jul-17 07:00N 50°49' W 001°06'0 0.0
2019-Jul-17 06:30N 50°49' W 001°06'0 0.0
2019-Jul-17 06:00N 50°49' W 001°06'0 0.4
2019-Jul-17 05:31N 50°49' W 001°06'611.6
2019-Jul-17 05:01N 50°44' W 001°02'714.4
2019-Jul-17 04:30N 50°37' W 000°57'713.6
2019-Jul-17 04:00N 50°30' W 000°54'611.1
2019-Jul-17 03:29N 50°25' W 000°51'610.6
2019-Jul-17 02:58N 50°20' W 000°49'511.0
2019-Jul-17 02:30N 50°15' W 000°47'611.3
2019-Jul-17 02:00N 50°09' W 000°45'611.6
2019-Jul-17 01:30N 50°04' W 000°42'612.1
2019-Jul-17 01:00N 49°59' W 000°37'611.8
2019-Jul-17 00:30N 49°53' W 000°34'611.6
2019-Jul-17 00:00N 49°48' W 000°31'611.2
2019-Jul-16 23:30N 49°42' W 000°28'510.9
2019-Jul-16 23:00N 49°38' W 000°23'510.7
2019-Jul-16 22:30N 49°33' W 000°19'510.6
2019-Jul-16 22:00N 49°28' W 000°17'510.5
2019-Jul-16 21:30N 49°23' W 000°16'510.5
2019-Jul-16 21:00N 49°18' W 000°15'0 0.8
2019-Jul-16 20:30N 49°17' W 000°15'0 0.0
2019-Jul-16 20:00N 49°17' W 000°15'0 0.0
2019-Jul-16 19:30N 49°17' W 000°15'4 8.0
2019-Jul-16 19:00N 49°21' W 000°14'918.3
2019-Jul-16 18:30N 49°30' W 000°19'918.7
2019-Jul-16 18:00N 49°39' W 000°25'918.3
2019-Jul-16 17:30N 49°47' W 000°30'918.5
2019-Jul-16 17:00N 49°55' W 000°36'918.5
2019-Jul-16 16:30N 50°04' W 000°42'918.5
2019-Jul-16 16:00N 50°13' W 000°47'1318.6
2019-Jul-16 15:19N 50°25' W 000°53'618.4
2019-Jul-16 15:00N 50°30' W 000°55'918.6
2019-Jul-16 14:30N 50°39' W 000°59'816.4
2019-Jul-16 14:01N 50°46' W 001°06'2 4.6
2019-Jul-16 13:30N 50°49' W 001°06'0 0.0
2019-Jul-16 13:01N 50°49' W 001°06'0 0.0
2019-Jul-16 12:30N 50°49' W 001°06'1 1.3
2019-Jul-16 12:01N 50°49' W 001°07'714.2
2019-Jul-16 11:30N 50°42' W 001°01'1019.2
2019-Jul-16 11:00N 50°33' W 000°55'2619.2
2019-Jul-16 09:39N 50°09' W 000°42'319.8
2019-Jul-16 09:29N 50°06' W 000°42'1019.2
2019-Jul-16 08:59N 49°56' W 000°36'919.2
2019-Jul-16 08:30N 49°48' W 000°31'918.9
2019-Jul-16 08:00N 49°39' W 000°25'1019.1
2019-Jul-16 07:30N 49°31' W 000°20'918.8
2019-Jul-16 07:00N 49°22' W 000°15'4 8.7
2019-Jul-16 06:30N 49°17' W 000°15'0 0.0
2019-Jul-16 06:00N 49°17' W 000°15'0 0.0
2019-Jul-16 05:30N 49°17' W 000°15'0 0.0
2019-Jul-16 05:00N 49°17' W 000°15'0 0.1
2019-Jul-16 04:30N 49°17' W 000°15'714.5
2019-Jul-16 04:00N 49°24' W 000°17'917.7
2019-Jul-16 03:30N 49°32' W 000°24'917.7
2019-Jul-16 03:00N 49°40' W 000°30'918.0
2019-Jul-16 02:30N 49°48' W 000°35'917.7
2019-Jul-16 02:00N 49°57' W 000°40'3215.6
2019-Jul-15 23:59N 50°27' W 000°53'714.9
2019-Jul-15 23:30N 50°34' W 000°56'715.0
2019-Jul-15 23:00N 50°41' W 001°00'713.8
2019-Jul-15 22:30N 50°47' W 001°06'2 4.1
2019-Jul-15 22:00N 50°49' W 001°06'0 0.0
2019-Jul-15 21:30N 50°49' W 001°06'0 0.0
2019-Jul-15 21:00N 50°49' W 001°06'0 0.6
2019-Jul-15 20:31N 50°49' W 001°06'611.2
2019-Jul-15 20:01N 50°44' W 001°02'918.1
2019-Jul-15 19:31N 50°35' W 000°57'2519.3
2019-Jul-15 18:12N 50°11' W 000°43'519.4
2019-Jul-15 17:56N 50°06' W 000°42'919.6
2019-Jul-15 17:28N 49°58' W 000°38'919.3
2019-Jul-15 17:00N 49°49' W 000°35'1019.3
2019-Jul-15 16:31N 49°40' W 000°31'1019.7
2019-Jul-15 16:00N 49°31' W 000°23'1019.8
2019-Jul-15 15:30N 49°23' W 000°16'510.7
2019-Jul-15 15:00N 49°17' W 000°15'0 0.0
2019-Jul-15 14:30N 49°17' W 000°15'0 0.0
2019-Jul-15 14:00N 49°17' W 000°15'0 0.0
2019-Jul-15 13:30N 49°17' W 000°15'0 0.0
2019-Jul-15 13:00N 49°17' W 000°15'3 6.5
2019-Jul-15 12:30N 49°21' W 000°14'816.6
2019-Jul-15 12:00N 49°28' W 000°19'918.5
2019-Jul-15 11:30N 49°37' W 000°24'918.5
2019-Jul-15 11:00N 49°46' W 000°29'918.7
2019-Jul-15 10:30N 49°55' W 000°33'1719.2
2019-Jul-15 09:38N 50°10' W 000°43'319.1
2019-Jul-15 09:30N 50°13' W 000°45'1119.3
2019-Jul-15 08:55N 50°23' W 000°51'1019.3
2019-Jul-15 08:26N 50°32' W 000°56'818.7
2019-Jul-15 08:00N 50°40' W 000°59'917.0
2019-Jul-15 07:30N 50°47' W 001°06'2 3.7
2019-Jul-15 07:00N 50°49' W 001°06'0 0.0
2019-Jul-15 06:31N 50°49' W 001°06'0 0.0
2019-Jul-15 06:00N 50°49' W 001°06'0 0.2
2019-Jul-15 05:30N 50°49' W 001°06'5 9.1
2019-Jul-15 05:01N 50°44' W 001°04'815.0
2019-Jul-15 04:30N 50°38' W 000°58'815.0
2019-Jul-15 04:00N 50°31' W 000°53'611.4
2019-Jul-15 03:30N 50°26' W 000°50'610.8
2019-Jul-15 02:58N 50°20' W 000°47'1511.1
2019-Jul-15 01:37N 50°06' W 000°41'411.7
2019-Jul-15 01:16N 50°02' W 000°39'311.8
2019-Jul-15 01:00N 49°59' W 000°37'611.8
2019-Jul-15 00:30N 49°53' W 000°34'612.0
2019-Jul-15 00:00N 49°48' W 000°30'611.9
2019-Jul-14 23:30N 49°42' W 000°27'611.5
2019-Jul-14 23:00N 49°37' W 000°23'511.2
2019-Jul-14 22:30N 49°32' W 000°21'611.3
2019-Jul-14 22:00N 49°26' W 000°18'611.1
2019-Jul-14 21:30N 49°21' W 000°15'4 7.8
2019-Jul-14 21:00N 49°17' W 000°15'0 0.0
2019-Jul-14 20:31N 49°17' W 000°15'0 0.0
2019-Jul-14 20:00N 49°17' W 000°15'0 0.0
2019-Jul-14 19:31N 49°17' W 000°15'4 7.6
2019-Jul-14 19:01N 49°21' W 000°14'917.5
2019-Jul-14 18:30N 49°29' W 000°20'918.2
2019-Jul-14 18:01N 49°37' W 000°26'918.6
2019-Jul-14 17:31N 49°46' W 000°32'918.6
2019-Jul-14 17:01N 49°54' W 000°38'918.0
2019-Jul-14 16:30N 50°03' W 000°42'1018.1
2019-Jul-14 15:57N 50°13' W 000°47'1119.1
2019-Jul-14 15:22N 50°23' W 000°51'718.9
2019-Jul-14 15:00N 50°30' W 000°54'918.7
2019-Jul-14 14:31N 50°39' W 000°58'816.4
2019-Jul-14 14:01N 50°46' W 001°05'3 6.2
2019-Jul-14 13:30N 50°49' W 001°06'0 0.0
2019-Jul-14 13:01N 50°49' W 001°06'0 0.0
2019-Jul-14 12:30N 50°49' W 001°06'1 1.1
2019-Jul-14 12:00N 50°49' W 001°07'612.9
2019-Jul-14 11:30N 50°43' W 001°02'918.4
2019-Jul-14 11:00N 50°34' W 000°57'1019.7
2019-Jul-14 10:30N 50°25' W 000°53'1819.7
2019-Jul-14 09:35N 50°08' W 000°43'619.8
2019-Jul-14 09:16N 50°02' W 000°40'519.7
2019-Jul-14 09:01N 49°57' W 000°37'1019.3
2019-Jul-14 08:30N 49°48' W 000°30'1019.5
2019-Jul-14 08:01N 49°40' W 000°23'1019.6
2019-Jul-14 07:31N 49°30' W 000°18'1019.1
2019-Jul-14 07:01N 49°21' W 000°15'4 7.7
2019-Jul-14 06:31N 49°17' W 000°15'0 0.0
2019-Jul-14 06:00N 49°17' W 000°15'0 0.0
2019-Jul-14 05:30N 49°17' W 000°15'0 0.0
2019-Jul-14 05:00N 49°17' W 000°15'3 6.8
2019-Jul-14 04:31N 49°21' W 000°14'816.3
2019-Jul-14 04:00N 49°29' W 000°17'816.8
2019-Jul-14 03:30N 49°36' W 000°22'917.4
2019-Jul-14 03:00N 49°45' W 000°27'917.4
2019-Jul-14 02:30N 49°53' W 000°31'3616.5
2019-Jul-14 00:18N 50°27' W 000°52'415.1
2019-Jul-14 00:00N 50°31' W 000°54'815.2
2019-Jul-13 23:31N 50°38' W 000°59'714.8
2019-Jul-13 23:00N 50°44' W 001°04'4 8.7
2019-Jul-13 22:31N 50°49' W 001°06'0 0.0
2019-Jul-13 22:00N 50°49' W 001°06'0 0.0
2019-Jul-13 21:31N 50°49' W 001°06'0 0.0
2019-Jul-13 21:00N 50°49' W 001°06'0 0.0
2019-Jul-13 20:31N 50°49' W 001°06'2 4.8
2019-Jul-13 20:01N 50°46' W 001°06'917.9
2019-Jul-13 19:31N 50°38' W 000°59'815.4
2019-Jul-13 19:00N 50°31' W 000°54'1019.2
2019-Jul-13 18:30N 50°22' W 000°48'1319.0
2019-Jul-13 17:48N 50°10' W 000°40'518.7
2019-Jul-13 17:30N 50°05' W 000°36'1019.0
2019-Jul-13 17:00N 49°56' W 000°31'1019.1
2019-Jul-13 16:30N 49°47' W 000°27'918.9
2019-Jul-13 16:00N 49°38' W 000°23'919.0
2019-Jul-13 15:30N 49°29' W 000°19'918.3
2019-Jul-13 15:00N 49°20' W 000°14'3 5.8
2019-Jul-13 14:30N 49°17' W 000°15'0 0.0
2019-Jul-13 14:00N 49°17' W 000°15'0 0.0
2019-Jul-13 13:30N 49°17' W 000°15'0 0.0
2019-Jul-13 13:00N 49°17' W 000°15'4 8.6
2019-Jul-13 12:31N 49°22' W 000°15'919.0
2019-Jul-13 12:01N 49°30' W 000°20'1019.2
2019-Jul-13 11:30N 49°40' W 000°25'1018.9
2019-Jul-13 11:00N 49°49' W 000°30'919.0
2019-Jul-13 10:31N 49°57' W 000°35'1119.3
2019-Jul-13 09:56N 50°08' W 000°39'2219.7
2019-Jul-13 08:50N 50°28' W 000°52'719.7
2019-Jul-13 08:30N 50°34' W 000°56'918.8
2019-Jul-13 08:01N 50°43' W 001°02'612.6
2019-Jul-13 07:30N 50°48' W 001°07'1 1.7
2019-Jul-13 07:00N 50°49' W 001°06'0 0.0
2019-Jul-13 06:30N 50°49' W 001°06'0 0.0
2019-Jul-13 06:00N 50°49' W 001°06'0 0.2
2019-Jul-13 05:31N 50°49' W 001°06'510.9
2019-Jul-13 05:01N 50°44' W 001°03'816.6
2019-Jul-13 04:31N 50°36' W 000°57'815.0
2019-Jul-13 04:00N 50°29' W 000°54'610.4
2019-Jul-13 03:25N 50°23' W 000°52'1810.7
2019-Jul-13 01:43N 50°05' W 000°45'211.2
2019-Jul-13 01:30N 50°03' W 000°43'611.2
2019-Jul-13 01:00N 49°58' W 000°40'611.6
2019-Jul-13 00:30N 49°52' W 000°37'611.5
2019-Jul-13 00:00N 49°47' W 000°33'611.7
2019-Jul-12 23:30N 49°42' W 000°29'611.7
2019-Jul-12 23:00N 49°37' W 000°26'611.4
2019-Jul-12 22:30N 49°32' W 000°21'611.4
2019-Jul-12 22:00N 49°26' W 000°17'611.5
2019-Jul-12 21:30N 49°21' W 000°15'4 7.2
2019-Jul-12 21:00N 49°17' W 000°15'0 0.0
2019-Jul-12 20:30N 49°17' W 000°15'0 0.0
2019-Jul-12 20:00N 49°17' W 000°15'0 0.0
2019-Jul-12 19:30N 49°17' W 000°15'4 8.0
2019-Jul-12 19:00N 49°21' W 000°14'1019.1
2019-Jul-12 18:30N 49°30' W 000°18'1020.3
2019-Jul-12 18:00N 49°40' W 000°22'1020.3
2019-Jul-12 17:30N 49°50' W 000°26'1020.6
2019-Jul-12 17:00N 50°00' W 000°31'1020.4
2019-Jul-12 16:30N 50°10' W 000°36'1020.9
2019-Jul-12 16:00N 50°19' W 000°45'1020.4
2019-Jul-12 15:30N 50°28' W 000°52'1020.2
2019-Jul-12 15:00N 50°37' W 000°58'816.2
2019-Jul-12 14:30N 50°44' W 001°04'5 9.5
2019-Jul-12 14:00N 50°49' W 001°06'0 0.0
2019-Jul-12 13:30N 50°49' W 001°06'0 0.0
2019-Jul-12 13:00N 50°49' W 001°06'0 0.0
2019-Jul-12 12:30N 50°49' W 001°06'1 2.4
2019-Jul-12 12:00N 50°48' W 001°07'713.8
2019-Jul-12 11:30N 50°43' W 000°59'917.5
2019-Jul-12 11:00N 50°34' W 000°57'918.6
2019-Jul-12 10:30N 50°25' W 000°52'2518.6
2019-Jul-12 09:09N 50°02' W 000°36'319.6
2019-Jul-12 09:00N 49°59' W 000°35'1019.6
2019-Jul-12 08:30N 49°50' W 000°30'1019.3
2019-Jul-12 08:00N 49°41' W 000°24'918.9
2019-Jul-12 07:30N 49°33' W 000°19'918.6
2019-Jul-12 07:00N 49°23' W 000°16'612.2
2019-Jul-12 06:30N 49°17' W 000°15'  
Track history (hours):
 
Tides and Currents Weather Stations Pressure Air Temp Water Temp Dewpoint Dewpoint Depression Visibility Wind Speed Wind Dir Waves Ship Positions

Normandie

Operator: Brittany Ferries

Last reported at 2019-Jul-22 06:00 UTC. Time now 2019-Jul-22 06:15 UTC.
Position N 50°49' W 001°06'.

Length 161 m; beam 27 m.

Type: Ship. MMSI: 227273000.

Date/timePositionNaut miles runAvg speedWind from/ knotsBaromVisibWave heightAir tempDewpointWater temp
2019-Jul-22 06:00N 50°49' W 001°06'0 0.4
2019-Jul-22 05:31N 50°49' W 001°06'510.8
2019-Jul-22 05:01N 50°44' W 001°03'815.7
2019-Jul-22 04:31N 50°37' W 000°58'816.2
2019-Jul-22 04:00N 50°29' W 000°54'612.2
2019-Jul-22 03:31N 50°23' W 000°51'611.7
2019-Jul-22 03:00N 50°18' W 000°46'611.9
2019-Jul-22 02:28N 50°12' W 000°43'811.4
2019-Jul-22 01:45N 50°04' W 000°39'411.1
2019-Jul-22 01:25N 50°01' W 000°37'511.3
2019-Jul-22 00:59N 49°56' W 000°34'511.2
2019-Jul-22 00:30N 49°51' W 000°31'611.1
2019-Jul-22 00:00N 49°46' W 000°28'611.1
2019-Jul-21 23:30N 49°41' W 000°25'611.0
2019-Jul-21 23:00N 49°36' W 000°22'511.0
2019-Jul-21 22:30N 49°30' W 000°19'510.7
2019-Jul-21 22:00N 49°25' W 000°17'510.4
2019-Jul-21 21:30N 49°20' W 000°14'3 6.1
2019-Jul-21 21:00N 49°17' W 000°15'0 0.0
2019-Jul-21 20:30N 49°17' W 000°15'0 0.0
2019-Jul-21 20:00N 49°17' W 000°15'0 0.0
2019-Jul-21 19:30N 49°17' W 000°15'3 6.3
2019-Jul-21 19:00N 49°21' W 000°14'918.7
2019-Jul-21 18:30N 49°29' W 000°20'919.0
2019-Jul-21 18:01N 49°38' W 000°24'918.8
2019-Jul-21 17:30N 49°47' W 000°29'918.9
2019-Jul-21 17:01N 49°56' W 000°34'918.8
2019-Jul-21 16:30N 50°05' W 000°38'1218.9
2019-Jul-21 15:52N 50°16' W 000°45'819.5
2019-Jul-21 15:28N 50°23' W 000°50'919.4
2019-Jul-21 15:00N 50°32' W 000°55'1019.1
2019-Jul-21 14:30N 50°41' W 000°60'815.6
2019-Jul-21 14:00N 50°47' W 001°07'2 3.0
2019-Jul-21 13:30N 50°49' W 001°06'0 0.0
2019-Jul-21 13:00N 50°49' W 001°06'0 0.0
2019-Jul-21 12:30N 50°49' W 001°06'1 1.3
2019-Jul-21 12:00N 50°49' W 001°07'713.8
2019-Jul-21 11:30N 50°43' W 001°01'918.8
2019-Jul-21 11:00N 50°34' W 000°56'1119.0
2019-Jul-21 10:27N 50°24' W 000°49'1019.5
2019-Jul-21 09:55N 50°14' W 000°46'819.1
2019-Jul-21 09:30N 50°06' W 000°42'1019.2
2019-Jul-21 09:00N 49°57' W 000°37'1019.1
2019-Jul-21 08:30N 49°48' W 000°33'1019.2
2019-Jul-21 08:00N 49°39' W 000°27'1019.4
2019-Jul-21 07:30N 49°31' W 000°21'1019.1
2019-Jul-21 07:00N 49°22' W 000°15'4 8.9
2019-Jul-21 06:30N 49°17' W 000°15'0 0.0
2019-Jul-21 06:00N 49°17' W 000°15'0 0.0
2019-Jul-21 05:30N 49°17' W 000°15'0 0.0
2019-Jul-21 05:00N 49°17' W 000°15'0 0.1
2019-Jul-21 04:30N 49°17' W 000°15'713.3
2019-Jul-21 04:00N 49°24' W 000°15'714.5
2019-Jul-21 03:30N 49°31' W 000°19'714.8
2019-Jul-21 03:00N 49°37' W 000°24'714.9
2019-Jul-21 02:30N 49°44' W 000°28'714.4
2019-Jul-21 02:00N 49°51' W 000°32'713.6
2019-Jul-21 01:30N 49°57' W 000°37'714.4
2019-Jul-21 01:01N 50°04' W 000°41'815.3
2019-Jul-21 00:31N 50°11' W 000°44'815.4
2019-Jul-21 00:00N 50°19' W 000°47'815.4
2019-Jul-20 23:30N 50°26' W 000°51'815.9
2019-Jul-20 23:00N 50°33' W 000°55'815.4
2019-Jul-20 22:30N 50°41' W 000°60'714.7
2019-Jul-20 22:00N 50°47' W 001°06'2 3.9
2019-Jul-20 21:30N 50°49' W 001°06'0 0.0
2019-Jul-20 21:00N 50°49' W 001°06'0 0.0
2019-Jul-20 20:30N 50°49' W 001°06'1 1.3
2019-Jul-20 20:00N 50°48' W 001°07'612.4
2019-Jul-20 19:30N 50°43' W 001°01'917.4
2019-Jul-20 19:00N 50°35' W 000°57'1019.6
2019-Jul-20 18:30N 50°25' W 000°54'1019.6
2019-Jul-20 17:59N 50°16' W 000°49'1020.2
2019-Jul-20 17:30N 50°07' W 000°43'1020.5
2019-Jul-20 17:00N 49°57' W 000°37'1020.2
2019-Jul-20 16:30N 49°48' W 000°32'1020.4
2019-Jul-20 16:00N 49°38' W 000°26'1020.1
2019-Jul-20 15:30N 49°29' W 000°20'1019.6
2019-Jul-20 15:00N 49°20' W 000°14'3 5.2
2019-Jul-20 14:30N 49°17' W 000°15'0 0.0
2019-Jul-20 14:00N 49°17' W 000°15'0 0.0
2019-Jul-20 13:30N 49°17' W 000°15'0 0.1
2019-Jul-20 13:00N 49°17' W 000°15'612.5
2019-Jul-20 12:31N 49°24' W 000°15'1019.9
2019-Jul-20 12:01N 49°33' W 000°21'1019.2
2019-Jul-20 11:31N 49°42' W 000°24'1019.8
2019-Jul-20 11:01N 49°52' W 000°28'1020.3
2019-Jul-20 10:31N 50°01' W 000°34'1020.4
2019-Jul-20 10:00N 50°11' W 000°40'1919.5
2019-Jul-20 09:03N 50°28' W 000°50'120.9
2019-Jul-20 09:01N 50°29' W 000°51'1020.1
2019-Jul-20 08:31N 50°38' W 000°58'713.3
2019-Jul-20 08:01N 50°44' W 001°03'611.1
2019-Jul-20 07:30N 50°49' W 001°06'0 0.5
2019-Jul-20 07:00N 50°49' W 001°06'0 0.0
2019-Jul-20 06:30N 50°49' W 001°06'0 0.0
2019-Jul-20 06:00N 50°49' W 001°06'0 0.9
2019-Jul-20 05:30N 50°49' W 001°07'611.5
2019-Jul-20 05:00N 50°44' W 001°02'714.9
2019-Jul-20 04:30N 50°36' W 000°58'815.7
2019-Jul-20 04:00N 50°29' W 000°56'713.8
2019-Jul-20 03:30N 50°22' W 000°52'1512.0
2019-Jul-20 02:17N 50°09' W 000°42'312.0
2019-Jul-20 02:00N 50°06' W 000°41'611.8
2019-Jul-20 01:30N 50°00' W 000°37'611.7
2019-Jul-20 01:00N 49°55' W 000°34'611.6
2019-Jul-20 00:30N 49°49' W 000°31'611.4
2019-Jul-20 00:00N 49°44' W 000°28'611.3
2019-Jul-19 23:30N 49°39' W 000°25'611.1
2019-Jul-19 23:00N 49°34' W 000°22'611.2
2019-Jul-19 22:30N 49°28' W 000°19'611.0
2019-Jul-19 22:00N 49°23' W 000°16'511.0
2019-Jul-19 21:31N 49°18' W 000°15'0 1.0
2019-Jul-19 21:01N 49°17' W 000°15'0 0.0
2019-Jul-19 20:31N 49°17' W 000°15'0 0.0
2019-Jul-19 20:01N 49°17' W 000°15'0 0.2
2019-Jul-19 19:30N 49°17' W 000°15'815.7
2019-Jul-19 19:00N 49°25' W 000°16'1019.8
2019-Jul-19 18:30N 49°34' W 000°22'1019.6
2019-Jul-19 18:00N 49°43' W 000°27'1019.2
2019-Jul-19 17:30N 49°53' W 000°32'1118.8
2019-Jul-19 16:54N 50°03' W 000°37'2619.0
2019-Jul-19 15:31N 50°28' W 000°51'019.0
2019-Jul-19 15:30N 50°28' W 000°51'918.5
2019-Jul-19 15:00N 50°37' W 000°57'917.6
2019-Jul-19 14:30N 50°44' W 001°05'5 9.0
2019-Jul-19 14:00N 50°49' W 001°06'0 0.0
2019-Jul-19 13:30N 50°49' W 001°06'0 0.0
2019-Jul-19 13:00N 50°49' W 001°06'0 0.0
2019-Jul-19 12:30N 50°49' W 001°06'1 2.7
2019-Jul-19 12:00N 50°47' W 001°07'816.5
2019-Jul-19 11:30N 50°40' W 001°00'1019.9
2019-Jul-19 11:00N 50°31' W 000°56'2119.2
2019-Jul-19 09:53N 50°11' W 000°44'918.9
2019-Jul-19 09:25N 50°02' W 000°39'818.7
2019-Jul-19 09:00N 49°55' W 000°35'918.6
2019-Jul-19 08:30N 49°46' W 000°31'918.6
2019-Jul-19 08:00N 49°38' W 000°26'918.8
2019-Jul-19 07:30N 49°29' W 000°20'918.5
2019-Jul-19 07:01N 49°20' W 000°14'3 6.1
2019-Jul-19 06:30N 49°17' W 000°15'0 0.0
2019-Jul-19 06:00N 49°17' W 000°15'0 0.0
2019-Jul-19 05:30N 49°17' W 000°15'0 0.0
2019-Jul-19 05:00N 49°17' W 000°15'0 0.2
2019-Jul-19 04:30N 49°17' W 000°15'714.8
2019-Jul-19 04:00N 49°25' W 000°16'917.5
2019-Jul-19 03:30N 49°33' W 000°21'815.1
2019-Jul-19 03:00N 49°40' W 000°26'815.1
2019-Jul-19 02:30N 49°47' W 000°30'815.1
2019-Jul-19 02:00N 49°54' W 000°33'815.5
2019-Jul-19 01:29N 50°02' W 000°37'815.8
2019-Jul-19 01:00N 50°09' W 000°40'816.0
2019-Jul-19 00:31N 50°16' W 000°44'815.6
2019-Jul-19 00:00N 50°23' W 000°49'915.7
2019-Jul-18 23:25N 50°32' W 000°54'615.4
2019-Jul-18 23:00N 50°38' W 000°58'714.2
2019-Jul-18 22:31N 50°44' W 001°04'5 9.5
2019-Jul-18 22:00N 50°49' W 001°06'0 0.0
2019-Jul-18 21:30N 50°49' W 001°06'0 0.0
2019-Jul-18 21:00N 50°49' W 001°06'0 0.0
2019-Jul-18 20:30N 50°49' W 001°06'1 2.2
2019-Jul-18 20:00N 50°48' W 001°07'713.6
2019-Jul-18 19:30N 50°43' W 000°59'918.3
2019-Jul-18 19:01N 50°34' W 000°56'1019.4
2019-Jul-18 18:30N 50°25' W 000°51'1019.6
2019-Jul-18 18:00N 50°15' W 000°47'1019.9
2019-Jul-18 17:30N 50°06' W 000°42'1020.4
2019-Jul-18 17:01N 49°56' W 000°36'1020.3
2019-Jul-18 16:31N 49°47' W 000°30'1020.2
2019-Jul-18 16:01N 49°38' W 000°25'1020.2
2019-Jul-18 15:31N 49°28' W 000°19'1019.0
2019-Jul-18 15:00N 49°19' W 000°15'2 3.6
2019-Jul-18 14:31N 49°17' W 000°15'0 0.0
2019-Jul-18 14:01N 49°17' W 000°15'0 0.0
2019-Jul-18 13:31N 49°17' W 000°15'0 0.0
2019-Jul-18 13:01N 49°17' W 000°15'2 4.7
2019-Jul-18 12:31N 49°20' W 000°14'918.9
2019-Jul-18 12:00N 49°29' W 000°18'1019.7
2019-Jul-18 11:31N 49°38' W 000°25'1019.9
2019-Jul-18 11:01N 49°47' W 000°31'1020.3
2019-Jul-18 10:30N 49°56' W 000°38'1020.5
2019-Jul-18 10:00N 50°05' W 000°45'1020.0
2019-Jul-18 09:30N 50°15' W 000°51'1419.2
2019-Jul-18 08:46N 50°28' W 000°58'518.3
2019-Jul-18 08:30N 50°33' W 000°60'917.3
2019-Jul-18 08:00N 50°41' W 000°58'816.7
2019-Jul-18 07:31N 50°47' W 001°07'1 2.7
2019-Jul-18 07:01N 50°49' W 001°06'0 0.0
2019-Jul-18 06:31N 50°49' W 001°06'0 0.0
2019-Jul-18 06:01N 50°49' W 001°06'1 1.4
2019-Jul-18 05:31N 50°48' W 001°07'612.6
2019-Jul-18 05:01N 50°43' W 001°01'612.0
2019-Jul-18 04:30N 50°38' W 000°58'510.4
2019-Jul-18 04:00N 50°33' W 000°55'510.5
2019-Jul-18 03:30N 50°28' W 000°53'510.4
2019-Jul-18 03:00N 50°23' W 000°50'510.7
2019-Jul-18 02:30N 50°18' W 000°46'611.2
2019-Jul-18 02:00N 50°13' W 000°43'1211.8
2019-Jul-18 01:00N 50°02' W 000°35'612.2
2019-Jul-18 00:30N 49°56' W 000°32'612.6
2019-Jul-18 00:00N 49°50' W 000°30'612.4
2019-Jul-17 23:30N 49°44' W 000°27'612.1
2019-Jul-17 23:00N 49°39' W 000°23'611.7
2019-Jul-17 22:30N 49°33' W 000°20'611.0
2019-Jul-17 22:00N 49°28' W 000°18'510.6
2019-Jul-17 21:30N 49°23' W 000°16'510.9
2019-Jul-17 21:00N 49°17' W 000°15'0 0.1
2019-Jul-17 20:30N 49°17' W 000°15'0 0.0
2019-Jul-17 20:00N 49°17' W 000°15'0 0.0
2019-Jul-17 19:30N 49°17' W 000°15'0 0.0
2019-Jul-17 19:00N 49°17' W 000°15'0 0.0
2019-Jul-17 18:30N 49°17' W 000°15'0 0.0
2019-Jul-17 18:00N 49°17' W 000°15'0 0.0
2019-Jul-17 17:30N 49°17' W 000°15'0 0.0
2019-Jul-17 17:00N 49°17' W 000°15'0 0.0
2019-Jul-17 16:30N 49°17' W 000°15'0 0.0
2019-Jul-17 16:00N 49°17' W 000°15'0 0.0
2019-Jul-17 15:30N 49°17' W 000°15'0 0.1
2019-Jul-17 15:00N 49°17' W 000°15'0 0.0
2019-Jul-17 14:30N 49°17' W 000°15'0 0.0
2019-Jul-17 14:00N 49°17' W 000°15'0 0.0
2019-Jul-17 13:30N 49°17' W 000°15'0 0.0
2019-Jul-17 13:00N 49°17' W 000°15'4 8.4
2019-Jul-17 12:30N 49°21' W 000°15'917.9
2019-Jul-17 12:00N 49°30' W 000°19'918.2
2019-Jul-17 11:31N 49°38' W 000°24'1020.0
2019-Jul-17 11:00N 49°48' W 000°28'1020.1
2019-Jul-17 10:30N 49°58' W 000°33'1020.3
2019-Jul-17 10:00N 50°07' W 000°39'1020.2
2019-Jul-17 09:30N 50°16' W 000°45'1019.8
2019-Jul-17 09:00N 50°26' W 000°50'1020.1
2019-Jul-17 08:30N 50°35' W 000°56'918.5
2019-Jul-17 08:00N 50°43' W 001°03'611.6
2019-Jul-17 07:30N 50°49' W 001°06'0 0.1
2019-Jul-17 07:00N 50°49' W 001°06'0 0.0
2019-Jul-17 06:30N 50°49' W 001°06'0 0.0
2019-Jul-17 06:00N 50°49' W 001°06'0 0.4
2019-Jul-17 05:31N 50°49' W 001°06'611.6
2019-Jul-17 05:01N 50°44' W 001°02'714.4
2019-Jul-17 04:30N 50°37' W 000°57'713.6
2019-Jul-17 04:00N 50°30' W 000°54'611.1
2019-Jul-17 03:29N 50°25' W 000°51'610.6
2019-Jul-17 02:58N 50°20' W 000°49'511.0
2019-Jul-17 02:30N 50°15' W 000°47'611.3
2019-Jul-17 02:00N 50°09' W 000°45'611.6
2019-Jul-17 01:30N 50°04' W 000°42'612.1
2019-Jul-17 01:00N 49°59' W 000°37'611.8
2019-Jul-17 00:30N 49°53' W 000°34'611.6
2019-Jul-17 00:00N 49°48' W 000°31'611.2
2019-Jul-16 23:30N 49°42' W 000°28'510.9
2019-Jul-16 23:00N 49°38' W 000°23'510.7
2019-Jul-16 22:30N 49°33' W 000°19'510.6
2019-Jul-16 22:00N 49°28' W 000°17'510.5
2019-Jul-16 21:30N 49°23' W 000°16'510.5
2019-Jul-16 21:00N 49°18' W 000°15'0 0.8
2019-Jul-16 20:30N 49°17' W 000°15'0 0.0
2019-Jul-16 20:00N 49°17' W 000°15'0 0.0
2019-Jul-16 19:30N 49°17' W 000°15'4 8.0
2019-Jul-16 19:00N 49°21' W 000°14'918.3
2019-Jul-16 18:30N 49°30' W 000°19'918.7
2019-Jul-16 18:00N 49°39' W 000°25'918.3
2019-Jul-16 17:30N 49°47' W 000°30'918.5
2019-Jul-16 17:00N 49°55' W 000°36'918.5
2019-Jul-16 16:30N 50°04' W 000°42'918.5
2019-Jul-16 16:00N 50°13' W 000°47'1318.6
2019-Jul-16 15:19N 50°25' W 000°53'618.4
2019-Jul-16 15:00N 50°30' W 000°55'918.6
2019-Jul-16 14:30N 50°39' W 000°59'816.4
2019-Jul-16 14:01N 50°46' W 001°06'2 4.6
2019-Jul-16 13:30N 50°49' W 001°06'0 0.0
2019-Jul-16 13:01N 50°49' W 001°06'0 0.0
2019-Jul-16 12:30N 50°49' W 001°06'1 1.3
2019-Jul-16 12:01N 50°49' W 001°07'714.2
2019-Jul-16 11:30N 50°42' W 001°01'1019.2
2019-Jul-16 11:00N 50°33' W 000°55'2619.2
2019-Jul-16 09:39N 50°09' W 000°42'319.8
2019-Jul-16 09:29N 50°06' W 000°42'1019.2
2019-Jul-16 08:59N 49°56' W 000°36'919.2
2019-Jul-16 08:30N 49°48' W 000°31'918.9
2019-Jul-16 08:00N 49°39' W 000°25'1019.1
2019-Jul-16 07:30N 49°31' W 000°20'918.8
2019-Jul-16 07:00N 49°22' W 000°15'4 8.7
2019-Jul-16 06:30N 49°17' W 000°15'0 0.0
2019-Jul-16 06:00N 49°17' W 000°15'0 0.0
2019-Jul-16 05:30N 49°17' W 000°15'0 0.0
2019-Jul-16 05:00N 49°17' W 000°15'0 0.1
2019-Jul-16 04:30N 49°17' W 000°15'714.5
2019-Jul-16 04:00N 49°24' W 000°17'917.7
2019-Jul-16 03:30N 49°32' W 000°24'917.7
2019-Jul-16 03:00N 49°40' W 000°30'918.0
2019-Jul-16 02:30N 49°48' W 000°35'917.7
2019-Jul-16 02:00N 49°57' W 000°40'3215.6
2019-Jul-15 23:59N 50°27' W 000°53'714.9
2019-Jul-15 23:30N 50°34' W 000°56'715.0
2019-Jul-15 23:00N 50°41' W 001°00'713.8
2019-Jul-15 22:30N 50°47' W 001°06'2 4.1
2019-Jul-15 22:00N 50°49' W 001°06'0 0.0
2019-Jul-15 21:30N 50°49' W 001°06'0 0.0
2019-Jul-15 21:00N 50°49' W 001°06'0 0.6
2019-Jul-15 20:31N 50°49' W 001°06'611.2
2019-Jul-15 20:01N 50°44' W 001°02'918.1
2019-Jul-15 19:31N 50°35' W 000°57'2519.3
2019-Jul-15 18:12N 50°11' W 000°43'519.4
2019-Jul-15 17:56N 50°06' W 000°42'919.6
2019-Jul-15 17:28N 49°58' W 000°38'919.3
2019-Jul-15 17:00N 49°49' W 000°35'1019.3
2019-Jul-15 16:31N 49°40' W 000°31'1019.7
2019-Jul-15 16:00N 49°31' W 000°23'1019.8
2019-Jul-15 15:30N 49°23' W 000°16'510.7
2019-Jul-15 15:00N 49°17' W 000°15'0 0.0
2019-Jul-15 14:30N 49°17' W 000°15'0 0.0
2019-Jul-15 14:00N 49°17' W 000°15'0 0.0
2019-Jul-15 13:30N 49°17' W 000°15'0 0.0
2019-Jul-15 13:00N 49°17' W 000°15'3 6.5
2019-Jul-15 12:30N 49°21' W 000°14'816.6
2019-Jul-15 12:00N 49°28' W 000°19'918.5
2019-Jul-15 11:30N 49°37' W 000°24'918.5
2019-Jul-15 11:00N 49°46' W 000°29'918.7
2019-Jul-15 10:30N 49°55' W 000°33'1719.2
2019-Jul-15 09:38N 50°10' W 000°43'319.1
2019-Jul-15 09:30N 50°13' W 000°45'1119.3
2019-Jul-15 08:55N 50°23' W 000°51'1019.3
2019-Jul-15 08:26N 50°32' W 000°56'818.7
2019-Jul-15 08:00N 50°40' W 000°59'917.0
2019-Jul-15 07:30N 50°47' W 001°06'2 3.7
2019-Jul-15 07:00N 50°49' W 001°06'0 0.0
2019-Jul-15 06:31N 50°49' W 001°06'0 0.0
2019-Jul-15 06:00N 50°49' W 001°06'0 0.2
2019-Jul-15 05:30N 50°49' W 001°06'5 9.1
2019-Jul-15 05:01N 50°44' W 001°04'815.0
2019-Jul-15 04:30N 50°38' W 000°58'815.0
2019-Jul-15 04:00N 50°31' W 000°53'611.4
2019-Jul-15 03:30N 50°26' W 000°50'610.8
2019-Jul-15 02:58N 50°20' W 000°47'1511.1
2019-Jul-15 01:37N 50°06' W 000°41'411.7
2019-Jul-15 01:16N 50°02' W 000°39'311.8
2019-Jul-15 01:00N 49°59' W 000°37'611.8
2019-Jul-15 00:30N 49°53' W 000°34'612.0
2019-Jul-15 00:00N 49°48' W 000°30'611.9
2019-Jul-14 23:30N 49°42' W 000°27'611.5
2019-Jul-14 23:00N 49°37' W 000°23'511.2
2019-Jul-14 22:30N 49°32' W 000°21'611.3
2019-Jul-14 22:00N 49°26' W 000°18'611.1
2019-Jul-14 21:30N 49°21' W 000°15'4 7.8
2019-Jul-14 21:00N 49°17' W 000°15'0 0.0
2019-Jul-14 20:31N 49°17' W 000°15'0 0.0
2019-Jul-14 20:00N 49°17' W 000°15'0 0.0
2019-Jul-14 19:31N 49°17' W 000°15'4 7.6
2019-Jul-14 19:01N 49°21' W 000°14'917.5
2019-Jul-14 18:30N 49°29' W 000°20'918.2
2019-Jul-14 18:01N 49°37' W 000°26'918.6
2019-Jul-14 17:31N 49°46' W 000°32'918.6
2019-Jul-14 17:01N 49°54' W 000°38'918.0
2019-Jul-14 16:30N 50°03' W 000°42'1018.1
2019-Jul-14 15:57N 50°13' W 000°47'1119.1
2019-Jul-14 15:22N 50°23' W 000°51'718.9
2019-Jul-14 15:00N 50°30' W 000°54'918.7
2019-Jul-14 14:31N 50°39' W 000°58'816.4
2019-Jul-14 14:01N 50°46' W 001°05'3 6.2
2019-Jul-14 13:30N 50°49' W 001°06'0 0.0
2019-Jul-14 13:01N 50°49' W 001°06'0 0.0
2019-Jul-14 12:30N 50°49' W 001°06'1 1.1
2019-Jul-14 12:00N 50°49' W 001°07'612.9
2019-Jul-14 11:30N 50°43' W 001°02'918.4
2019-Jul-14 11:00N 50°34' W 000°57'1019.7
2019-Jul-14 10:30N 50°25' W 000°53'1819.7
2019-Jul-14 09:35N 50°08' W 000°43'619.8
2019-Jul-14 09:16N 50°02' W 000°40'519.7
2019-Jul-14 09:01N 49°57' W 000°37'1019.3
2019-Jul-14 08:30N 49°48' W 000°30'1019.5
2019-Jul-14 08:01N 49°40' W 000°23'1019.6
2019-Jul-14 07:31N 49°30' W 000°18'1019.1
2019-Jul-14 07:01N 49°21' W 000°15'4 7.7
2019-Jul-14 06:31N 49°17' W 000°15'0 0.0
2019-Jul-14 06:00N 49°17' W 000°15'0 0.0
2019-Jul-14 05:30N 49°17' W 000°15'0 0.0
2019-Jul-14 05:00N 49°17' W 000°15'3 6.8
2019-Jul-14 04:31N 49°21' W 000°14'816.3
2019-Jul-14 04:00N 49°29' W 000°17'816.8
2019-Jul-14 03:30N 49°36' W 000°22'917.4
2019-Jul-14 03:00N 49°45' W 000°27'917.4
2019-Jul-14 02:30N 49°53' W 000°31'3616.5
2019-Jul-14 00:18N 50°27' W 000°52'415.1
2019-Jul-14 00:00N 50°31' W 000°54'815.2
2019-Jul-13 23:31N 50°38' W 000°59'714.8
2019-Jul-13 23:00N 50°44' W 001°04'4 8.7
2019-Jul-13 22:31N 50°49' W 001°06'0 0.0
2019-Jul-13 22:00N 50°49' W 001°06'0 0.0
2019-Jul-13 21:31N 50°49' W 001°06'0 0.0
2019-Jul-13 21:00N 50°49' W 001°06'0 0.0
2019-Jul-13 20:31N 50°49' W 001°06'2 4.8
2019-Jul-13 20:01N 50°46' W 001°06'917.9
2019-Jul-13 19:31N 50°38' W 000°59'815.4
2019-Jul-13 19:00N 50°31' W 000°54'1019.2
2019-Jul-13 18:30N 50°22' W 000°48'1319.0
2019-Jul-13 17:48N 50°10' W 000°40'518.7
2019-Jul-13 17:30N 50°05' W 000°36'1019.0
2019-Jul-13 17:00N 49°56' W 000°31'1019.1
2019-Jul-13 16:30N 49°47' W 000°27'918.9
2019-Jul-13 16:00N 49°38' W 000°23'919.0
2019-Jul-13 15:30N 49°29' W 000°19'918.3
2019-Jul-13 15:00N 49°20' W 000°14'3 5.8
2019-Jul-13 14:30N 49°17' W 000°15'0 0.0
2019-Jul-13 14:00N 49°17' W 000°15'0 0.0
2019-Jul-13 13:30N 49°17' W 000°15'0 0.0
2019-Jul-13 13:00N 49°17' W 000°15'4 8.6
2019-Jul-13 12:31N 49°22' W 000°15'919.0
2019-Jul-13 12:01N 49°30' W 000°20'1019.2
2019-Jul-13 11:30N 49°40' W 000°25'1018.9
2019-Jul-13 11:00N 49°49' W 000°30'919.0
2019-Jul-13 10:31N 49°57' W 000°35'1119.3
2019-Jul-13 09:56N 50°08' W 000°39'2219.7
2019-Jul-13 08:50N 50°28' W 000°52'719.7
2019-Jul-13 08:30N 50°34' W 000°56'918.8
2019-Jul-13 08:01N 50°43' W 001°02'612.6
2019-Jul-13 07:30N 50°48' W 001°07'1 1.7
2019-Jul-13 07:00N 50°49' W 001°06'0 0.0
2019-Jul-13 06:30N 50°49' W 001°06'0 0.0
2019-Jul-13 06:00N 50°49' W 001°06'0 0.2
2019-Jul-13 05:31N 50°49' W 001°06'510.9
2019-Jul-13 05:01N 50°44' W 001°03'816.6
2019-Jul-13 04:31N 50°36' W 000°57'815.0
2019-Jul-13 04:00N 50°29' W 000°54'610.4
2019-Jul-13 03:25N 50°23' W 000°52'1810.7
2019-Jul-13 01:43N 50°05' W 000°45'211.2
2019-Jul-13 01:30N 50°03' W 000°43'611.2
2019-Jul-13 01:00N 49°58' W 000°40'611.6
2019-Jul-13 00:30N 49°52' W 000°37'611.5
2019-Jul-13 00:00N 49°47' W 000°33'611.7
2019-Jul-12 23:30N 49°42' W 000°29'611.7
2019-Jul-12 23:00N 49°37' W 000°26'611.4
2019-Jul-12 22:30N 49°32' W 000°21'611.4
2019-Jul-12 22:00N 49°26' W 000°17'611.5
2019-Jul-12 21:30N 49°21' W 000°15'4 7.2
2019-Jul-12 21:00N 49°17' W 000°15'0 0.0
2019-Jul-12 20:30N 49°17' W 000°15'0 0.0
2019-Jul-12 20:00N 49°17' W 000°15'0 0.0
2019-Jul-12 19:30N 49°17' W 000°15'4 8.0
2019-Jul-12 19:00N 49°21' W 000°14'1019.1
2019-Jul-12 18:30N 49°30' W 000°18'1020.3
2019-Jul-12 18:00N 49°40' W 000°22'1020.3
2019-Jul-12 17:30N 49°50' W 000°26'1020.6
2019-Jul-12 17:00N 50°00' W 000°31'1020.4
2019-Jul-12 16:30N 50°10' W 000°36'1020.9
2019-Jul-12 16:00N 50°19' W 000°45'1020.4
2019-Jul-12 15:30N 50°28' W 000°52'1020.2
2019-Jul-12 15:00N 50°37' W 000°58'816.2
2019-Jul-12 14:30N 50°44' W 001°04'5 9.5
2019-Jul-12 14:00N 50°49' W 001°06'0 0.0
2019-Jul-12 13:30N 50°49' W 001°06'0 0.0
2019-Jul-12 13:00N 50°49' W 001°06'0 0.0
2019-Jul-12 12:30N 50°49' W 001°06'1 2.4
2019-Jul-12 12:00N 50°48' W 001°07'713.8
2019-Jul-12 11:30N 50°43' W 000°59'917.5
2019-Jul-12 11:00N 50°34' W 000°57'918.6
2019-Jul-12 10:30N 50°25' W 000°52'2518.6
2019-Jul-12 09:09N 50°02' W 000°36'319.6
2019-Jul-12 09:00N 49°59' W 000°35'1019.6
2019-Jul-12 08:30N 49°50' W 000°30'1019.3
2019-Jul-12 08:00N 49°41' W 000°24'918.9
2019-Jul-12 07:30N 49°33' W 000°19'918.6
2019-Jul-12 07:00N 49°23' W 000°16'612.2
2019-Jul-12 06:30N 49°17' W 000°15'  

Dump ship's entire track history